createdAt,value
2022-09-07T00:03:56.935Z,18.70
2022-09-07T00:08:55.285Z,18.60
2022-09-07T00:13:53.602Z,18.60
2022-09-07T00:18:55.375Z,18.60
2022-09-07T00:23:54.234Z,18.60
2022-09-07T00:28:52.805Z,18.60
2022-09-07T00:33:54.234Z,18.60
2022-09-07T00:38:53.212Z,18.50
2022-09-07T00:43:53.257Z,18.50
2022-09-07T00:49:00.501Z,18.50
2022-09-07T00:54:02.255Z,18.40
2022-09-07T00:59:00.960Z,18.40
2022-09-07T01:04:02.115Z,18.40
2022-09-07T01:09:04.083Z,18.30
2022-09-07T01:14:04.957Z,18.30
2022-09-07T01:19:22.775Z,18.20
2022-09-07T01:24:54.968Z,18.30
2022-09-07T01:30:03.343Z,18.30
2022-09-07T01:35:04.792Z,18.30
2022-09-07T01:40:10.896Z,18.30
2022-09-07T01:45:15.120Z,18.40
2022-09-07T01:50:18.370Z,18.30
2022-09-07T01:55:20.168Z,18.20
2022-09-07T02:00:20.943Z,18.20
2022-09-07T02:05:22.845Z,18.20
2022-09-07T02:10:25.484Z,18.10
2022-09-07T02:15:32.732Z,18.10
2022-09-07T02:20:34.373Z,18.10
2022-09-07T02:25:38.269Z,18.10
2022-09-07T02:30:38.687Z,18.10
2022-09-07T02:35:37.609Z,18.10
2022-09-07T02:40:36.572Z,18.10
2022-09-07T02:45:45.047Z,18.20
2022-09-07T02:51:03.374Z,18.30
2022-09-07T02:56:13.112Z,18.30
2022-09-07T03:01:31.100Z,18.20
2022-09-07T03:06:33.221Z,18.20
2022-09-07T03:11:31.697Z,18.20
2022-09-07T03:16:31.435Z,18.30
2022-09-07T03:21:29.696Z,18.30
2022-09-07T03:26:27.999Z,18.30
2022-09-07T03:31:26.622Z,18.30
2022-09-07T03:36:26.471Z,18.30
2022-09-07T03:41:24.744Z,18.20
2022-09-07T03:46:23.604Z,18.10
2022-09-07T03:51:21.983Z,18.10
2022-09-07T03:56:25.392Z,18.10
2022-09-07T04:01:25.121Z,18.20
2022-09-07T04:06:23.460Z,18.20
2022-09-07T04:11:23.239Z,18.10
2022-09-07T04:16:24.100Z,18.10
2022-09-07T04:21:23.088Z,18.10
2022-09-07T04:26:26.411Z,18.10
2022-09-07T04:31:25.862Z,18.10
2022-09-07T04:36:25.787Z,18.10
2022-09-07T04:41:25.928Z,18.10
2022-09-07T04:46:26.476Z,18.10
2022-09-07T04:51:26.346Z,18.10
2022-09-07T04:56:26.561Z,18.10
2022-09-07T05:01:26.313Z,18.20
2022-09-07T05:06:25.198Z,18.20
2022-09-07T05:11:29.144Z,18.20
2022-09-07T05:16:29.249Z,18.20
2022-09-07T05:21:29.016Z,18.20
2022-09-07T05:26:31.475Z,18.30
2022-09-07T05:31:29.830Z,18.30
2022-09-07T05:36:28.906Z,18.30
2022-09-07T05:41:29.017Z,18.20
2022-09-07T05:46:28.976Z,18.20
2022-09-07T05:51:27.355Z,18.30
2022-09-07T05:56:25.692Z,18.30
2022-09-07T06:01:25.381Z,18.30
2022-09-07T06:06:23.870Z,18.30
2022-09-07T06:11:23.590Z,18.30
2022-09-07T06:16:22.827Z,18.30
2022-09-07T06:21:24.731Z,18.40
2022-09-07T06:26:23.103Z,18.40
2022-09-07T06:31:22.921Z,18.40
2022-09-07T06:36:24.483Z,18.50
2022-09-07T06:52:02.608Z,18.50
2022-09-07T06:57:06.223Z,18.40
2022-09-07T07:02:05.186Z,18.40
2022-09-07T07:07:04.948Z,18.40
2022-09-07T07:12:03.633Z,18.40
2022-09-07T07:17:01.978Z,18.40
2022-09-07T07:27:21.555Z,18.40
2022-09-07T07:32:19.900Z,18.30
2022-09-07T07:37:18.200Z,18.30
2022-09-07T07:42:16.489Z,18.30
2022-09-07T07:47:16.180Z,18.30
2022-09-07T07:57:34.733Z,18.30
2022-09-07T08:02:34.503Z,18.30
2022-09-07T08:07:32.846Z,18.30
2022-09-07T08:12:31.658Z,18.20
2022-09-07T08:17:30.746Z,18.20
2022-09-07T08:22:34.641Z,18.10
2022-09-07T08:27:33.102Z,18.00
2022-09-07T08:32:31.232Z,18.00
2022-09-07T08:37:30.841Z,18.00
2022-09-07T08:42:43.794Z,18.00
2022-09-07T08:47:46.888Z,18.10
2022-09-07T08:52:50.812Z,18.20
2022-09-07T08:57:55.145Z,18.30
2022-09-07T09:08:27.143Z,18.60
2022-09-07T09:13:40.519Z,18.90
2022-09-07T09:18:49.408Z,19.30
2022-09-07T09:23:52.254Z,19.60
2022-09-07T09:28:50.911Z,19.90
2022-09-07T09:34:11.243Z,20.00
2022-09-07T09:39:29.747Z,20.30
2022-09-07T09:44:33.757Z,20.40
2022-09-07T09:49:36.908Z,20.60
2022-09-07T09:54:42.065Z,20.80
2022-09-07T09:59:58.148Z,21.10
2022-09-07T10:04:58.428Z,21.30
2022-09-07T10:09:58.476Z,21.60
2022-09-07T10:14:57.655Z,21.90
2022-09-07T10:20:01.635Z,22.20
2022-09-07T10:25:02.260Z,22.50
2022-09-07T10:30:01.289Z,22.60
2022-09-07T10:35:09.429Z,22.90
2022-09-07T10:40:26.000Z,23.10
2022-09-07T10:45:34.568Z,23.30
2022-09-07T10:50:38.147Z,23.40
2022-09-07T10:55:41.555Z,23.60
2022-09-07T11:00:48.545Z,23.90
2022-09-07T11:06:03.350Z,24.10
2022-09-07T11:11:13.079Z,24.20
2022-09-07T11:27:03.864Z,24.80
2022-09-07T11:32:08.058Z,25.00
2022-09-07T11:37:11.413Z,25.50
2022-09-07T11:47:40.638Z,25.90
2022-09-07T11:52:41.829Z,25.90
2022-09-07T11:57:54.926Z,26.20
2022-09-07T12:03:33.877Z,26.40
2022-09-07T12:08:48.339Z,26.60
2022-09-07T12:14:03.443Z,26.60
2022-09-07T12:19:16.858Z,26.60
2022-09-07T12:24:43.545Z,26.60
2022-09-07T12:29:46.253Z,26.60
2022-09-07T12:34:55.218Z,26.60
2022-09-07T12:40:33.274Z,26.60
2022-09-07T12:45:55.151Z,26.70
2022-09-07T12:50:58.909Z,26.60
2022-09-07T12:56:24.272Z,26.60
2022-09-07T13:01:36.411Z,26.60
2022-09-07T13:07:03.249Z,26.70
2022-09-07T13:12:04.733Z,26.70
2022-09-07T13:17:41.600Z,26.80
2022-09-07T13:23:29.002Z,26.90
2022-09-07T13:28:32.825Z,27.00
2022-09-07T13:33:51.606Z,27.10
2022-09-07T13:38:51.525Z,27.20
2022-09-07T13:43:50.581Z,27.20
2022-09-07T13:48:53.434Z,27.10
2022-09-07T13:54:04.804Z,27.10
2022-09-07T13:59:13.397Z,27.00
2022-09-07T14:04:23.748Z,27.00
2022-09-07T14:09:23.078Z,27.00
2022-09-07T14:14:22.734Z,27.10
2022-09-07T14:19:25.644Z,27.10
2022-09-07T14:24:34.851Z,27.00
2022-09-07T14:29:34.366Z,27.00
2022-09-07T14:34:37.255Z,27.10
2022-09-07T14:39:39.252Z,27.00
2022-09-07T14:44:40.258Z,27.00
2022-09-07T14:49:40.309Z,26.90
2022-09-07T14:54:38.485Z,26.90
2022-09-07T14:59:39.664Z,26.80
2022-09-07T15:04:39.360Z,26.80
2022-09-07T15:09:39.094Z,26.70
2022-09-07T15:14:37.318Z,26.60
2022-09-07T15:19:36.014Z,26.60
2022-09-07T15:24:35.641Z,26.50
2022-09-07T15:29:33.983Z,26.50
2022-09-07T15:34:32.578Z,26.40
2022-09-07T15:39:31.590Z,26.40
2022-09-07T15:44:31.208Z,26.30
2022-09-07T15:49:29.369Z,26.20
2022-09-07T15:54:28.023Z,26.10
2022-09-07T15:59:26.222Z,26.10
2022-09-07T16:04:25.798Z,26.10
2022-09-07T16:09:24.049Z,26.00
2022-09-07T16:14:22.318Z,26.00
2022-09-07T16:19:20.951Z,25.90
2022-09-07T16:24:20.707Z,25.80
2022-09-07T16:29:19.762Z,25.70
2022-09-07T16:34:21.213Z,25.70
2022-09-07T16:39:21.345Z,25.70
2022-09-07T16:44:19.626Z,25.60
2022-09-07T16:49:17.809Z,25.50
2022-09-07T16:54:16.932Z,25.50
2022-09-07T16:59:18.334Z,25.40
2022-09-07T17:04:16.534Z,25.30
2022-09-07T17:09:15.933Z,25.20
2022-09-07T17:14:14.359Z,25.10
2022-09-07T17:19:31.878Z,25.00
2022-09-07T17:24:32.271Z,24.80
2022-09-07T17:29:37.094Z,24.70
2022-09-07T17:34:36.934Z,24.60
2022-09-07T17:39:35.406Z,24.60
2022-09-07T17:44:37.997Z,24.40
2022-09-07T17:49:38.129Z,24.40
2022-09-07T17:54:37.094Z,24.20
2022-09-07T18:04:55.057Z,24.10
2022-09-07T18:09:53.214Z,24.00
2022-09-07T18:14:51.366Z,23.90
2022-09-07T18:19:49.512Z,23.80
2022-09-07T18:24:50.968Z,23.70
2022-09-07T18:29:49.071Z,23.60
2022-09-07T18:34:50.538Z,23.60
2022-09-07T18:39:50.512Z,23.50
2022-09-07T18:50:07.785Z,23.30
2022-09-07T18:55:08.546Z,23.20
2022-09-07T19:00:08.977Z,23.10
2022-09-07T19:10:27.101Z,22.90
2022-09-07T19:15:25.180Z,22.80
2022-09-07T19:20:25.657Z,22.80
2022-09-07T19:25:24.458Z,22.70
2022-09-07T19:30:24.149Z,22.60
2022-09-07T19:35:22.250Z,22.50
2022-09-07T19:40:20.808Z,22.50
2022-09-07T19:45:19.006Z,22.40
2022-09-07T19:50:20.803Z,22.30
2022-09-07T19:55:19.321Z,22.30
2022-09-07T20:00:17.745Z,22.20
2022-09-07T20:05:16.007Z,22.10
2022-09-07T20:10:16.035Z,22.10
2022-09-07T20:15:14.747Z,22.00
2022-09-07T20:20:12.952Z,22.00
2022-09-07T20:25:13.246Z,22.00
2022-09-07T20:30:13.861Z,21.90
2022-09-07T20:35:11.957Z,21.90
2022-09-07T20:40:10.617Z,21.80
2022-09-07T20:45:09.798Z,21.80
2022-09-07T20:50:10.011Z,21.70
2022-09-07T20:55:08.990Z,21.70
2022-09-07T21:00:08.346Z,21.60
2022-09-07T21:05:07.818Z,21.60
2022-09-07T21:12:17.775Z,21.60
2022-09-07T21:17:15.920Z,21.50
2022-09-07T21:22:14.579Z,21.50
2022-09-07T21:27:12.685Z,21.40
2022-09-07T21:32:12.179Z,21.40
2022-09-07T21:37:10.303Z,21.40
2022-09-07T21:42:08.650Z,21.40
2022-09-07T21:47:07.213Z,21.20
2022-09-07T21:52:06.862Z,21.20
2022-09-07T21:57:05.502Z,21.30
2022-09-07T22:02:03.917Z,21.20
2022-09-07T22:07:02.208Z,21.20
2022-09-07T22:12:01.694Z,21.20
2022-09-07T22:17:00.111Z,21.10
2022-09-07T22:21:58.229Z,21.10
2022-09-07T22:26:56.363Z,21.00
2022-09-07T22:31:56.007Z,21.00
2022-09-07T22:36:54.294Z,20.90
2022-09-07T22:41:53.182Z,20.90
2022-09-07T22:46:51.415Z,20.80
2022-09-07T22:51:50.993Z,20.70
2022-09-07T22:56:49.248Z,20.70
2022-09-07T23:01:47.453Z,20.60
2022-09-07T23:06:45.961Z,20.50
2022-09-07T23:11:46.418Z,20.50
2022-09-07T23:16:45.311Z,20.40
2022-09-07T23:21:43.876Z,20.30
2022-09-07T23:26:42.571Z,20.30
2022-09-07T23:31:42.871Z,20.20
2022-09-07T23:36:41.149Z,20.10
2022-09-07T23:41:39.273Z,20.10
2022-09-07T23:46:37.438Z,20.10
2022-09-07T23:51:36.939Z,20.00
2022-09-07T23:56:37.820Z,20.00
